sensor_id;sensor_type;location;lat;lon;timestamp;P1;durP1;ratioP1;P2;durP2;ratioP2
21721;SDS011;11023;48.274;7.794;2023-03-14T00:02:21;1.77;;;0.70;;
21721;SDS011;11023;48.274;7.794;2023-03-14T00:04:46;2.00;;;0.70;;
21721;SDS011;11023;48.274;7.794;2023-03-14T00:07:12;0.80;;;0.68;;
21721;SDS011;11023;48.274;7.794;2023-03-14T00:09:39;1.23;;;0.60;;
21721;SDS011;11023;48.274;7.794;2023-03-14T00:12:05;0.70;;;0.50;;
21721;SDS011;11023;48.274;7.794;2023-03-14T00:14:32;0.47;;;0.40;;
21721;SDS011;11023;48.274;7.794;2023-03-14T00:16:58;0.93;;;0.47;;
21721;SDS011;11023;48.274;7.794;2023-03-14T00:19:24;1.30;;;0.50;;
21721;SDS011;11023;48.274;7.794;2023-03-14T00:21:49;1.70;;;0.55;;
21721;SDS011;11023;48.274;7.794;2023-03-14T00:24:15;1.10;;;0.57;;
21721;SDS011;11023;48.274;7.794;2023-03-14T00:26:41;1.90;;;0.50;;
21721;SDS011;11023;48.274;7.794;2023-03-14T00:29:06;1.40;;;0.43;;
21721;SDS011;11023;48.274;7.794;2023-03-14T00:31:32;1.08;;;0.47;;
21721;SDS011;11023;48.274;7.794;2023-03-14T00:33:58;2.30;;;0.60;;
21721;SDS011;11023;48.274;7.794;2023-03-14T00:36:24;1.27;;;0.55;;
21721;SDS011;11023;48.274;7.794;2023-03-14T00:38:50;1.40;;;0.50;;
21721;SDS011;11023;48.274;7.794;2023-03-14T00:41:21;1.95;;;0.50;;
21721;SDS011;11023;48.274;7.794;2023-03-14T00:43:50;2.50;;;0.60;;
21721;SDS011;11023;48.274;7.794;2023-03-14T00:46:17;1.50;;;0.50;;
21721;SDS011;11023;48.274;7.794;2023-03-14T00:48:44;1.48;;;0.47;;
21721;SDS011;11023;48.274;7.794;2023-03-14T00:51:10;0.43;;;0.40;;
21721;SDS011;11023;48.274;7.794;2023-03-14T00:53:38;0.80;;;0.30;;
21721;SDS011;11023;48.274;7.794;2023-03-14T00:56:05;3.58;;;1.00;;
21721;SDS011;11023;48.274;7.794;2023-03-14T00:58:32;0.98;;;0.40;;
21721;SDS011;11023;48.274;7.794;2023-03-14T01:00:58;1.63;;;0.50;;
21721;SDS011;11023;48.274;7.794;2023-03-14T01:03:29;1.55;;;0.40;;
21721;SDS011;11023;48.274;7.794;2023-03-14T01:06:04;2.22;;;0.60;;
21721;SDS011;11023;48.274;7.794;2023-03-14T01:08:35;0.65;;;0.40;;
21721;SDS011;11023;48.274;7.794;2023-03-14T01:11:04;2.88;;;0.68;;
21721;SDS011;11023;48.274;7.794;2023-03-14T01:13:31;1.02;;;0.47;;
21721;SDS011;11023;48.274;7.794;2023-03-14T01:16:00;1.38;;;0.60;;
21721;SDS011;11023;48.274;7.794;2023-03-14T01:18:30;1.15;;;0.50;;
21721;SDS011;11023;48.274;7.794;2023-03-14T01:20:56;1.85;;;0.50;;
21721;SDS011;11023;48.274;7.794;2023-03-14T01:23:22;2.08;;;0.60;;
21721;SDS011;11023;48.274;7.794;2023-03-14T01:25:48;1.98;;;0.63;;
21721;SDS011;11023;48.274;7.794;2023-03-14T01:28:13;1.50;;;0.60;;
21721;SDS011;11023;48.274;7.794;2023-03-14T01:30:39;1.75;;;0.60;;
21721;SDS011;11023;48.274;7.794;2023-03-14T01:33:04;3.22;;;0.52;;
21721;SDS011;11023;48.274;7.794;2023-03-14T01:35:30;2.53;;;0.63;;
21721;SDS011;11023;48.274;7.794;2023-03-14T01:37:58;1.75;;;0.65;;
21721;SDS011;11023;48.274;7.794;2023-03-14T01:40:23;2.20;;;0.60;;
21721;SDS011;11023;48.274;7.794;2023-03-14T01:42:56;2.95;;;1.00;;
21721;SDS011;11023;48.274;7.794;2023-03-14T01:48:26;4.30;;;0.82;;
21721;SDS011;11023;48.274;7.794;2023-03-14T01:50:56;5.22;;;0.80;;
21721;SDS011;11023;48.274;7.794;2023-03-14T01:53:24;2.90;;;0.70;;
21721;SDS011;11023;48.274;7.794;2023-03-14T01:55:50;2.60;;;0.70;;
21721;SDS011;11023;48.274;7.794;2023-03-14T01:58:21;3.75;;;1.00;;
21721;SDS011;11023;48.274;7.794;2023-03-14T02:00:48;5.45;;;0.90;;
21721;SDS011;11023;48.274;7.794;2023-03-14T02:03:14;4.38;;;1.00;;
21721;SDS011;11023;48.274;7.794;2023-03-14T02:05:42;1.92;;;0.60;;
21721;SDS011;11023;48.274;7.794;2023-03-14T02:08:16;4.22;;;0.65;;
21721;SDS011;11023;48.274;7.794;2023-03-14T02:10:45;4.43;;;0.80;;
21721;SDS011;11023;48.274;7.794;2023-03-14T02:13:13;4.15;;;0.68;;
21721;SDS011;11023;48.274;7.794;2023-03-14T02:15:42;6.93;;;0.95;;
21721;SDS011;11023;48.274;7.794;2023-03-14T02:18:07;6.05;;;0.90;;
21721;SDS011;11023;48.274;7.794;2023-03-14T02:23:31;4.30;;;0.90;;
21721;SDS011;11023;48.274;7.794;2023-03-14T02:26:11;3.50;;;0.65;;
21721;SDS011;11023;48.274;7.794;2023-03-14T02:29:39;6.97;;;0.70;;
21721;SDS011;11023;48.274;7.794;2023-03-14T02:32:36;4.10;;;0.70;;
21721;SDS011;11023;48.274;7.794;2023-03-14T02:35:08;3.97;;;0.75;;
21721;SDS011;11023;48.274;7.794;2023-03-14T02:44:02;3.30;;;0.70;;
21721;SDS011;11023;48.274;7.794;2023-03-14T02:46:31;6.13;;;1.10;;
21721;SDS011;11023;48.274;7.794;2023-03-14T02:49:24;2.67;;;0.60;;
21721;SDS011;11023;48.274;7.794;2023-03-14T02:51:59;4.38;;;0.80;;
21721;SDS011;11023;48.274;7.794;2023-03-14T02:54:35;2.95;;;0.75;;
21721;SDS011;11023;48.274;7.794;2023-03-14T02:57:10;3.28;;;0.80;;
21721;SDS011;11023;48.274;7.794;2023-03-14T02:59:54;4.00;;;0.77;;
21721;SDS011;11023;48.274;7.794;2023-03-14T03:02:55;3.20;;;0.95;;
21721;SDS011;11023;48.274;7.794;2023-03-14T03:05:29;2.53;;;0.70;;
21721;SDS011;11023;48.274;7.794;2023-03-14T03:07:57;3.97;;;0.88;;
21721;SDS011;11023;48.274;7.794;2023-03-14T03:10:49;3.22;;;0.60;;
21721;SDS011;11023;48.274;7.794;2023-03-14T03:13:32;3.05;;;0.70;;
21721;SDS011;11023;48.274;7.794;2023-03-14T03:15:59;4.20;;;0.60;;
21721;SDS011;11023;48.274;7.794;2023-03-14T03:18:59;3.58;;;0.80;;
21721;SDS011;11023;48.274;7.794;2023-03-14T03:21:39;3.40;;;0.73;;
21721;SDS011;11023;48.274;7.794;2023-03-14T03:24:25;5.00;;;1.10;;
21721;SDS011;11023;48.274;7.794;2023-03-14T03:27:03;5.18;;;0.85;;
21721;SDS011;11023;48.274;7.794;2023-03-14T03:29:43;4.40;;;0.90;;
21721;SDS011;11023;48.274;7.794;2023-03-14T03:32:09;2.22;;;0.75;;
21721;SDS011;11023;48.274;7.794;2023-03-14T03:40:24;6.45;;;0.95;;
21721;SDS011;11023;48.274;7.794;2023-03-14T03:43:06;6.57;;;1.02;;
21721;SDS011;11023;48.274;7.794;2023-03-14T03:45:48;4.07;;;0.73;;
21721;SDS011;11023;48.274;7.794;2023-03-14T03:52:18;5.97;;;1.00;;
21721;SDS011;11023;48.274;7.794;2023-03-14T03:55:04;3.38;;;0.70;;
21721;SDS011;11023;48.274;7.794;2023-03-14T03:57:48;5.97;;;0.82;;
21721;SDS011;11023;48.274;7.794;2023-03-14T04:00:56;5.78;;;1.02;;
21721;SDS011;11023;48.274;7.794;2023-03-14T04:03:48;3.45;;;0.52;;
21721;SDS011;11023;48.274;7.794;2023-03-14T04:06:42;3.60;;;0.80;;
21721;SDS011;11023;48.274;7.794;2023-03-14T04:09:11;2.85;;;0.60;;
21721;SDS011;11023;48.274;7.794;2023-03-14T04:11:46;2.42;;;0.73;;
21721;SDS011;11023;48.274;7.794;2023-03-14T04:14:23;4.22;;;0.60;;
21721;SDS011;11023;48.274;7.794;2023-03-14T04:17:14;6.30;;;0.98;;
21721;SDS011;11023;48.274;7.794;2023-03-14T04:20:16;3.03;;;0.70;;
21721;SDS011;11023;48.274;7.794;2023-03-14T04:23:20;5.25;;;1.08;;
21721;SDS011;11023;48.274;7.794;2023-03-14T04:26:14;2.50;;;0.60;;
21721;SDS011;11023;48.274;7.794;2023-03-14T04:29:05;2.85;;;0.68;;
21721;SDS011;11023;48.274;7.794;2023-03-14T04:31:43;3.80;;;0.90;;
21721;SDS011;11023;48.274;7.794;2023-03-14T04:34:45;4.85;;;0.70;;
21721;SDS011;11023;48.274;7.794;2023-03-14T04:37:15;5.28;;;0.90;;
21721;SDS011;11023;48.274;7.794;2023-03-14T04:39:47;4.53;;;0.68;;
21721;SDS011;11023;48.274;7.794;2023-03-14T04:42:32;2.63;;;0.70;;
21721;SDS011;11023;48.274;7.794;2023-03-14T04:45:22;4.28;;;0.65;;
21721;SDS011;11023;48.274;7.794;2023-03-14T04:48:07;3.92;;;0.70;;
21721;SDS011;11023;48.274;7.794;2023-03-14T04:50:47;3.70;;;0.60;;
21721;SDS011;11023;48.274;7.794;2023-03-14T04:53:26;3.40;;;0.60;;
21721;SDS011;11023;48.274;7.794;2023-03-14T04:56:05;6.13;;;0.85;;
21721;SDS011;11023;48.274;7.794;2023-03-14T05:01:15;2.35;;;0.50;;
21721;SDS011;11023;48.274;7.794;2023-03-14T05:03:46;4.03;;;0.70;;
21721;SDS011;11023;48.274;7.794;2023-03-14T05:06:22;3.05;;;0.50;;
21721;SDS011;11023;48.274;7.794;2023-03-14T05:12:30;2.83;;;0.68;;
21721;SDS011;11023;48.274;7.794;2023-03-14T05:15:18;3.08;;;0.50;;
21721;SDS011;11023;48.274;7.794;2023-03-14T05:17:49;1.85;;;0.50;;
21721;SDS011;11023;48.274;7.794;2023-03-14T05:20:37;1.52;;;0.60;;
21721;SDS011;11023;48.274;7.794;2023-03-14T05:23:03;2.30;;;0.40;;
21721;SDS011;11023;48.274;7.794;2023-03-14T05:25:57;2.45;;;0.40;;
21721;SDS011;11023;48.274;7.794;2023-03-14T05:31:41;0.80;;;0.40;;
21721;SDS011;11023;48.274;7.794;2023-03-14T05:34:19;2.75;;;0.40;;
21721;SDS011;11023;48.274;7.794;2023-03-14T05:36:48;2.50;;;0.57;;
21721;SDS011;11023;48.274;7.794;2023-03-14T05:39:25;4.50;;;0.60;;
21721;SDS011;11023;48.274;7.794;2023-03-14T05:45:44;1.23;;;0.60;;
21721;SDS011;11023;48.274;7.794;2023-03-14T05:48:47;0.77;;;0.40;;
21721;SDS011;11023;48.274;7.794;2023-03-14T05:55:02;4.18;;;0.63;;
21721;SDS011;11023;48.274;7.794;2023-03-14T05:57:50;2.80;;;0.40;;
21721;SDS011;11023;48.274;7.794;2023-03-14T06:03:28;1.02;;;0.40;;
21721;SDS011;11023;48.274;7.794;2023-03-14T06:05:58;1.77;;;0.45;;
21721;SDS011;11023;48.274;7.794;2023-03-14T06:08:48;2.67;;;0.50;;
21721;SDS011;11023;48.274;7.794;2023-03-14T06:11:44;2.60;;;0.50;;
21721;SDS011;11023;48.274;7.794;2023-03-14T06:22:51;1.27;;;0.60;;
21721;SDS011;11023;48.274;7.794;2023-03-14T06:25:32;2.22;;;0.50;;
21721;SDS011;11023;48.274;7.794;2023-03-14T06:28:45;1.38;;;0.50;;
21721;SDS011;11023;48.274;7.794;2023-03-14T06:34:25;0.57;;;0.40;;
21721;SDS011;11023;48.274;7.794;2023-03-14T06:37:29;2.10;;;0.50;;
21721;SDS011;11023;48.274;7.794;2023-03-14T06:46:24;3.80;;;0.52;;
21721;SDS011;11023;48.274;7.794;2023-03-14T06:49:01;3.03;;;0.50;;
21721;SDS011;11023;48.274;7.794;2023-03-14T06:51:53;1.83;;;0.80;;
21721;SDS011;11023;48.274;7.794;2023-03-14T06:54:29;0.70;;;0.32;;
21721;SDS011;11023;48.274;7.794;2023-03-14T07:01:14;1.92;;;0.40;;
21721;SDS011;11023;48.274;7.794;2023-03-14T07:03:56;2.63;;;0.65;;
21721;SDS011;11023;48.274;7.794;2023-03-14T07:06:39;1.92;;;1.05;;
21721;SDS011;11023;48.274;7.794;2023-03-14T07:09:25;2.90;;;0.68;;
21721;SDS011;11023;48.274;7.794;2023-03-14T07:12:29;1.33;;;0.50;;
21721;SDS011;11023;48.274;7.794;2023-03-14T07:21:14;1.42;;;0.50;;
21721;SDS011;11023;48.274;7.794;2023-03-14T07:23:40;2.75;;;0.60;;
21721;SDS011;11023;48.274;7.794;2023-03-14T07:29:11;1.73;;;0.30;;
21721;SDS011;11023;48.274;7.794;2023-03-14T07:35:23;0.98;;;0.30;;
21721;SDS011;11023;48.274;7.794;2023-03-14T07:41:14;2.70;;;0.40;;
21721;SDS011;11023;48.274;7.794;2023-03-14T07:44:30;2.58;;;0.50;;
21721;SDS011;11023;48.274;7.794;2023-03-14T07:53:48;3.25;;;0.28;;
21721;SDS011;11023;48.274;7.794;2023-03-14T07:56:52;1.05;;;0.30;;
21721;SDS011;11023;48.274;7.794;2023-03-14T08:03:43;0.73;;;0.25;;
21721;SDS011;11023;48.274;7.794;2023-03-14T08:26:21;1.42;;;0.30;;
21721;SDS011;11023;48.274;7.794;2023-03-14T08:28:46;1.40;;;0.30;;
21721;SDS011;11023;48.274;7.794;2023-03-14T08:31:12;1.55;;;0.50;;
21721;SDS011;11023;48.274;7.794;2023-03-14T08:33:38;1.55;;;0.40;;
21721;SDS011;11023;48.274;7.794;2023-03-14T08:36:03;1.02;;;0.22;;
21721;SDS011;11023;48.274;7.794;2023-03-14T08:38:29;1.48;;;0.28;;
21721;SDS011;11023;48.274;7.794;2023-03-14T08:40:56;1.63;;;0.20;;
21721;SDS011;11023;48.274;7.794;2023-03-14T08:43:22;0.50;;;0.20;;
21721;SDS011;11023;48.274;7.794;2023-03-14T08:45:48;0.65;;;0.30;;
21721;SDS011;11023;48.274;7.794;2023-03-14T08:48:14;1.52;;;0.20;;
21721;SDS011;11023;48.274;7.794;2023-03-14T08:50:39;1.15;;;0.20;;
21721;SDS011;11023;48.274;7.794;2023-03-14T08:53:05;0.98;;;0.30;;
21721;SDS011;11023;48.274;7.794;2023-03-14T08:55:30;0.52;;;0.13;;
21721;SDS011;11023;48.274;7.794;2023-03-14T08:57:56;0.73;;;0.40;;
21721;SDS011;11023;48.274;7.794;2023-03-14T09:00:22;3.15;;;0.50;;
21721;SDS011;11023;48.274;7.794;2023-03-14T09:02:48;0.65;;;0.25;;
21721;SDS011;11023;48.274;7.794;2023-03-14T09:05:15;1.30;;;0.30;;
21721;SDS011;11023;48.274;7.794;2023-03-14T09:07:40;1.27;;;0.40;;
21721;SDS011;11023;48.274;7.794;2023-03-14T09:10:07;0.40;;;0.25;;
21721;SDS011;11023;48.274;7.794;2023-03-14T09:12:33;1.23;;;0.17;;
21721;SDS011;11023;48.274;7.794;2023-03-14T09:14:59;0.82;;;0.40;;
21721;SDS011;11023;48.274;7.794;2023-03-14T09:17:25;0.30;;;0.25;;
21721;SDS011;11023;48.274;7.794;2023-03-14T09:19:51;1.25;;;0.30;;
21721;SDS011;11023;48.274;7.794;2023-03-14T09:22:16;1.83;;;0.30;;
21721;SDS011;11023;48.274;7.794;2023-03-14T09:24:42;1.90;;;0.20;;
21721;SDS011;11023;48.274;7.794;2023-03-14T09:27:08;1.35;;;0.38;;
21721;SDS011;11023;48.274;7.794;2023-03-14T09:29:34;1.20;;;0.20;;
21721;SDS011;11023;48.274;7.794;2023-03-14T09:31:59;1.00;;;0.30;;
21721;SDS011;11023;48.274;7.794;2023-03-14T09:34:26;0.47;;;0.10;;
21721;SDS011;11023;48.274;7.794;2023-03-14T09:36:52;0.43;;;0.10;;
21721;SDS011;11023;48.274;7.794;2023-03-14T09:39:17;0.73;;;0.20;;
21721;SDS011;11023;48.274;7.794;2023-03-14T09:41:44;1.05;;;0.20;;
21721;SDS011;11023;48.274;7.794;2023-03-14T09:44:16;0.20;;;0.17;;
21721;SDS011;11023;48.274;7.794;2023-03-14T09:46:51;0.55;;;0.15;;
21721;SDS011;11023;48.274;7.794;2023-03-14T09:51:47;0.55;;;0.20;;
21721;SDS011;11023;48.274;7.794;2023-03-14T09:54:29;0.20;;;0.10;;
21721;SDS011;11023;48.274;7.794;2023-03-14T09:57:13;0.68;;;0.15;;
21721;SDS011;11023;48.274;7.794;2023-03-14T09:59:42;1.10;;;0.20;;
21721;SDS011;11023;48.274;7.794;2023-03-14T10:02:14;0.38;;;0.17;;
21721;SDS011;11023;48.274;7.794;2023-03-14T10:04:48;0.10;;;0.10;;
21721;SDS011;11023;48.274;7.794;2023-03-14T10:07:17;4.55;;;0.95;;
21721;SDS011;11023;48.274;7.794;2023-03-14T10:09:48;0.75;;;0.30;;
21721;SDS011;11023;48.274;7.794;2023-03-14T10:12:15;2.22;;;0.20;;
21721;SDS011;11023;48.274;7.794;2023-03-14T10:14:48;0.95;;;0.20;;
21721;SDS011;11023;48.274;7.794;2023-03-14T10:17:16;1.08;;;0.20;;
21721;SDS011;11023;48.274;7.794;2023-03-14T10:19:54;1.80;;;0.28;;
21721;SDS011;11023;48.274;7.794;2023-03-14T10:22:22;0.68;;;0.28;;
21721;SDS011;11023;48.274;7.794;2023-03-14T10:24:52;0.77;;;0.20;;
21721;SDS011;11023;48.274;7.794;2023-03-14T10:27:22;0.60;;;0.15;;
21721;SDS011;11023;48.274;7.794;2023-03-14T10:29:56;0.13;;;0.13;;
21721;SDS011;11023;48.274;7.794;2023-03-14T10:32:34;1.52;;;0.28;;
21721;SDS011;11023;48.274;7.794;2023-03-14T10:40:24;0.60;;;0.10;;
21721;SDS011;11023;48.274;7.794;2023-03-14T10:42:54;1.27;;;0.20;;
21721;SDS011;11023;48.274;7.794;2023-03-14T10:48:18;0.93;;;0.20;;
21721;SDS011;11023;48.274;7.794;2023-03-14T10:50:50;0.30;;;0.10;;
21721;SDS011;11023;48.274;7.794;2023-03-14T10:53:21;0.50;;;0.20;;
21721;SDS011;11023;48.274;7.794;2023-03-14T10:55:47;0.98;;;0.25;;
21721;SDS011;11023;48.274;7.794;2023-03-14T10:58:33;0.52;;;0.20;;
21721;SDS011;11023;48.274;7.794;2023-03-14T11:01:13;0.10;;;0.10;;
21721;SDS011;11023;48.274;7.794;2023-03-14T11:03:52;0.25;;;0.10;;
21721;SDS011;11023;48.274;7.794;2023-03-14T11:11:47;1.27;;;0.20;;
21721;SDS011;11023;48.274;7.794;2023-03-14T11:22:49;0.95;;;0.28;;
21721;SDS011;11023;48.274;7.794;2023-03-14T11:28:29;2.72;;;0.30;;
21721;SDS011;11023;48.274;7.794;2023-03-14T11:36:19;0.55;;;0.30;;
21721;SDS011;11023;48.274;7.794;2023-03-14T11:38:52;0.40;;;0.20;;
21721;SDS011;11023;48.274;7.794;2023-03-14T11:41:35;0.65;;;0.20;;
21721;SDS011;11023;48.274;7.794;2023-03-14T11:44:07;2.05;;;1.00;;
21721;SDS011;11023;48.274;7.794;2023-03-14T11:46:42;1.95;;;0.52;;
21721;SDS011;11023;48.274;7.794;2023-03-14T11:49:14;1.55;;;0.30;;
21721;SDS011;11023;48.274;7.794;2023-03-14T11:51:46;1.90;;;0.38;;
21721;SDS011;11023;48.274;7.794;2023-03-14T11:59:38;1.80;;;0.40;;
21721;SDS011;11023;48.274;7.794;2023-03-14T12:10:42;1.30;;;0.32;;
21721;SDS011;11023;48.274;7.794;2023-03-14T12:13:14;0.77;;;0.30;;
21721;SDS011;11023;48.274;7.794;2023-03-14T12:15:46;1.17;;;0.30;;
21721;SDS011;11023;48.274;7.794;2023-03-14T12:18:18;2.70;;;0.40;;
21721;SDS011;11023;48.274;7.794;2023-03-14T12:20:54;2.30;;;1.10;;
21721;SDS011;11023;48.274;7.794;2023-03-14T12:23:25;0.88;;;0.47;;
21721;SDS011;11023;48.274;7.794;2023-03-14T12:28:36;2.17;;;0.40;;
21721;SDS011;11023;48.274;7.794;2023-03-14T12:34:03;2.65;;;0.38;;
21721;SDS011;11023;48.274;7.794;2023-03-14T12:42:11;2.10;;;0.50;;
21721;SDS011;11023;48.274;7.794;2023-03-14T12:44:44;1.50;;;0.38;;
21721;SDS011;11023;48.274;7.794;2023-03-14T12:50:02;1.40;;;0.43;;
21721;SDS011;11023;48.274;7.794;2023-03-14T12:52:45;1.67;;;0.40;;
21721;SDS011;11023;48.274;7.794;2023-03-14T12:55:16;4.05;;;0.80;;
21721;SDS011;11023;48.274;7.794;2023-03-14T13:00:57;1.67;;;0.60;;
21721;SDS011;11023;48.274;7.794;2023-03-14T13:03:26;2.58;;;0.60;;
21721;SDS011;11023;48.274;7.794;2023-03-14T13:06:04;1.75;;;0.40;;
21721;SDS011;11023;48.274;7.794;2023-03-14T13:08:34;1.88;;;0.47;;
21721;SDS011;11023;48.274;7.794;2023-03-14T13:11:01;1.42;;;0.60;;
21721;SDS011;11023;48.274;7.794;2023-03-14T13:13:30;1.85;;;0.57;;
21721;SDS011;11023;48.274;7.794;2023-03-14T13:16:01;2.15;;;0.50;;
21721;SDS011;11023;48.274;7.794;2023-03-14T13:23:40;3.40;;;0.95;;
21721;SDS011;11023;48.274;7.794;2023-03-14T13:26:18;3.78;;;0.60;;
21721;SDS011;11023;48.274;7.794;2023-03-14T13:28:44;3.72;;;0.28;;
21721;SDS011;11023;48.274;7.794;2023-03-14T13:31:12;2.38;;;0.43;;
21721;SDS011;11023;48.274;7.794;2023-03-14T13:33:46;2.00;;;0.60;;
21721;SDS011;11023;48.274;7.794;2023-03-14T13:36:12;2.30;;;0.57;;
21721;SDS011;11023;48.274;7.794;2023-03-14T13:38:37;0.88;;;0.50;;
21721;SDS011;11023;48.274;7.794;2023-03-14T13:41:06;2.80;;;0.52;;
21721;SDS011;11023;48.274;7.794;2023-03-14T13:43:34;1.75;;;0.52;;
21721;SDS011;11023;48.274;7.794;2023-03-14T13:46:04;1.13;;;0.60;;
21721;SDS011;11023;48.274;7.794;2023-03-14T13:48:44;1.70;;;0.70;;
21721;SDS011;11023;48.274;7.794;2023-03-14T13:51:19;2.15;;;0.80;;
21721;SDS011;11023;48.274;7.794;2023-03-14T13:53:48;4.00;;;0.80;;
21721;SDS011;11023;48.274;7.794;2023-03-14T13:56:15;4.18;;;0.70;;
21721;SDS011;11023;48.274;7.794;2023-03-14T13:58:49;3.08;;;0.50;;
21721;SDS011;11023;48.274;7.794;2023-03-14T14:03:42;1.52;;;0.35;;
21721;SDS011;11023;48.274;7.794;2023-03-14T14:06:23;3.50;;;0.82;;
21721;SDS011;11023;48.274;7.794;2023-03-14T14:08:59;2.58;;;0.70;;
21721;SDS011;11023;48.274;7.794;2023-03-14T14:11:58;1.50;;;0.40;;
21721;SDS011;11023;48.274;7.794;2023-03-14T14:17:05;3.47;;;0.57;;
21721;SDS011;11023;48.274;7.794;2023-03-14T14:19:33;3.60;;;0.70;;
21721;SDS011;11023;48.274;7.794;2023-03-14T14:22:00;2.05;;;0.47;;
21721;SDS011;11023;48.274;7.794;2023-03-14T14:24:28;3.55;;;0.60;;
21721;SDS011;11023;48.274;7.794;2023-03-14T14:27:39;2.58;;;0.60;;
21721;SDS011;11023;48.274;7.794;2023-03-14T14:30:01;2.85;;;0.63;;
21721;SDS011;11023;48.274;7.794;2023-03-14T14:32:36;1.35;;;0.50;;
21721;SDS011;11023;48.274;7.794;2023-03-14T14:35:03;3.63;;;0.70;;
21721;SDS011;11023;48.274;7.794;2023-03-14T14:37:31;1.58;;;0.45;;
21721;SDS011;11023;48.274;7.794;2023-03-14T14:39:59;3.85;;;0.43;;
21721;SDS011;11023;48.274;7.794;2023-03-14T14:44:58;2.83;;;0.45;;
21721;SDS011;11023;48.274;7.794;2023-03-14T14:47:25;2.97;;;0.50;;
21721;SDS011;11023;48.274;7.794;2023-03-14T14:49:53;3.55;;;0.75;;
21721;SDS011;11023;48.274;7.794;2023-03-14T14:52:21;6.22;;;0.77;;
21721;SDS011;11023;48.274;7.794;2023-03-14T14:54:58;2.67;;;0.60;;
21721;SDS011;11023;48.274;7.794;2023-03-14T14:57:30;2.33;;;0.50;;
21721;SDS011;11023;48.274;7.794;2023-03-14T15:00:04;2.10;;;0.60;;
21721;SDS011;11023;48.274;7.794;2023-03-14T15:02:36;1.92;;;0.73;;
21721;SDS011;11023;48.274;7.794;2023-03-14T15:07:44;3.08;;;0.63;;
21721;SDS011;11023;48.274;7.794;2023-03-14T15:10:12;4.82;;;0.80;;
21721;SDS011;11023;48.274;7.794;2023-03-14T15:12:39;2.47;;;0.93;;
21721;SDS011;11023;48.274;7.794;2023-03-14T15:15:05;2.38;;;0.52;;
21721;SDS011;11023;48.274;7.794;2023-03-14T15:17:32;5.70;;;1.00;;
21721;SDS011;11023;48.274;7.794;2023-03-14T15:19:58;3.25;;;0.70;;
21721;SDS011;11023;48.274;7.794;2023-03-14T15:22:24;2.85;;;0.90;;
21721;SDS011;11023;48.274;7.794;2023-03-14T15:24:49;3.13;;;0.80;;
21721;SDS011;11023;48.274;7.794;2023-03-14T15:27:15;3.55;;;0.82;;
21721;SDS011;11023;48.274;7.794;2023-03-14T15:29:44;4.97;;;0.90;;
21721;SDS011;11023;48.274;7.794;2023-03-14T15:32:11;3.15;;;0.85;;
21721;SDS011;11023;48.274;7.794;2023-03-14T15:34:38;6.72;;;1.20;;
21721;SDS011;11023;48.274;7.794;2023-03-14T15:37:04;2.65;;;0.85;;
21721;SDS011;11023;48.274;7.794;2023-03-14T15:39:34;5.60;;;0.60;;
21721;SDS011;11023;48.274;7.794;2023-03-14T15:42:00;4.78;;;0.90;;
21721;SDS011;11023;48.274;7.794;2023-03-14T15:44:26;5.32;;;0.77;;
21721;SDS011;11023;48.274;7.794;2023-03-14T15:46:52;3.85;;;0.98;;
21721;SDS011;11023;48.274;7.794;2023-03-14T15:49:17;3.58;;;0.90;;
21721;SDS011;11023;48.274;7.794;2023-03-14T15:51:43;4.68;;;1.20;;
21721;SDS011;11023;48.274;7.794;2023-03-14T15:54:09;2.42;;;0.70;;
21721;SDS011;11023;48.274;7.794;2023-03-14T15:56:34;4.68;;;1.00;;
21721;SDS011;11023;48.274;7.794;2023-03-14T15:59:00;3.58;;;1.08;;
21721;SDS011;11023;48.274;7.794;2023-03-14T16:01:26;5.93;;;0.98;;
21721;SDS011;11023;48.274;7.794;2023-03-14T16:03:51;3.92;;;0.98;;
21721;SDS011;11023;48.274;7.794;2023-03-14T16:06:17;5.80;;;1.38;;
21721;SDS011;11023;48.274;7.794;2023-03-14T16:08:44;4.70;;;1.00;;
21721;SDS011;11023;48.274;7.794;2023-03-14T16:11:11;3.95;;;1.00;;
21721;SDS011;11023;48.274;7.794;2023-03-14T16:13:37;6.50;;;1.60;;
21721;SDS011;11023;48.274;7.794;2023-03-14T16:16:04;5.78;;;1.05;;
21721;SDS011;11023;48.274;7.794;2023-03-14T16:18:34;3.35;;;1.13;;
21721;SDS011;11023;48.274;7.794;2023-03-14T16:21:03;2.28;;;0.75;;
21721;SDS011;11023;48.274;7.794;2023-03-14T16:23:35;4.15;;;1.08;;
21721;SDS011;11023;48.274;7.794;2023-03-14T16:26:05;4.60;;;0.88;;
21721;SDS011;11023;48.274;7.794;2023-03-14T16:28:33;4.65;;;0.90;;
21721;SDS011;11023;48.274;7.794;2023-03-14T16:31:03;5.80;;;0.82;;
21721;SDS011;11023;48.274;7.794;2023-03-14T16:33:32;4.15;;;0.82;;
21721;SDS011;11023;48.274;7.794;2023-03-14T16:36:00;2.88;;;0.70;;
21721;SDS011;11023;48.274;7.794;2023-03-14T16:38:30;4.63;;;1.33;;
21721;SDS011;11023;48.274;7.794;2023-03-14T16:40:57;5.72;;;1.38;;
21721;SDS011;11023;48.274;7.794;2023-03-14T16:43:27;6.13;;;1.38;;
21721;SDS011;11023;48.274;7.794;2023-03-14T16:45:55;4.47;;;1.10;;
21721;SDS011;11023;48.274;7.794;2023-03-14T16:48:23;5.40;;;1.20;;
21721;SDS011;11023;48.274;7.794;2023-03-14T16:50:49;3.97;;;0.98;;
21721;SDS011;11023;48.274;7.794;2023-03-14T16:53:15;4.03;;;0.80;;
21721;SDS011;11023;48.274;7.794;2023-03-14T16:55:41;3.55;;;0.75;;
21721;SDS011;11023;48.274;7.794;2023-03-14T16:58:07;5.10;;;0.70;;
21721;SDS011;11023;48.274;7.794;2023-03-14T17:00:33;3.13;;;1.00;;
21721;SDS011;11023;48.274;7.794;2023-03-14T17:02:58;3.78;;;0.90;;
21721;SDS011;11023;48.274;7.794;2023-03-14T17:05:24;5.07;;;1.10;;
21721;SDS011;11023;48.274;7.794;2023-03-14T17:07:50;2.83;;;0.70;;
21721;SDS011;11023;48.274;7.794;2023-03-14T17:10:15;2.28;;;0.73;;
21721;SDS011;11023;48.274;7.794;2023-03-14T17:12:42;3.42;;;0.77;;
21721;SDS011;11023;48.274;7.794;2023-03-14T17:15:09;4.07;;;1.00;;
21721;SDS011;11023;48.274;7.794;2023-03-14T17:17:34;4.35;;;0.77;;
21721;SDS011;11023;48.274;7.794;2023-03-14T17:20:00;4.15;;;0.70;;
21721;SDS011;11023;48.274;7.794;2023-03-14T17:22:29;3.13;;;0.60;;
21721;SDS011;11023;48.274;7.794;2023-03-14T17:24:55;3.30;;;0.70;;
21721;SDS011;11023;48.274;7.794;2023-03-14T17:27:20;1.90;;;0.65;;
21721;SDS011;11023;48.274;7.794;2023-03-14T17:29:46;3.17;;;0.90;;
21721;SDS011;11023;48.274;7.794;2023-03-14T17:32:13;1.88;;;0.73;;
21721;SDS011;11023;48.274;7.794;2023-03-14T17:34:39;3.78;;;0.68;;
21721;SDS011;11023;48.274;7.794;2023-03-14T17:37:04;2.88;;;0.75;;
21721;SDS011;11023;48.274;7.794;2023-03-14T17:39:30;3.67;;;1.35;;
21721;SDS011;11023;48.274;7.794;2023-03-14T17:41:56;2.83;;;1.10;;
21721;SDS011;11023;48.274;7.794;2023-03-14T17:44:21;2.65;;;1.20;;
21721;SDS011;11023;48.274;7.794;2023-03-14T17:46:47;3.67;;;1.60;;
21721;SDS011;11023;48.274;7.794;2023-03-14T17:49:13;4.05;;;1.40;;
21721;SDS011;11023;48.274;7.794;2023-03-14T17:51:38;3.28;;;1.33;;
21721;SDS011;11023;48.274;7.794;2023-03-14T17:54:04;2.63;;;1.20;;
21721;SDS011;11023;48.274;7.794;2023-03-14T17:56:30;4.63;;;1.63;;
21721;SDS011;11023;48.274;7.794;2023-03-14T17:58:56;4.85;;;1.70;;
21721;SDS011;11023;48.274;7.794;2023-03-14T18:01:22;4.28;;;1.98;;
21721;SDS011;11023;48.274;7.794;2023-03-14T18:03:48;4.88;;;1.83;;
21721;SDS011;11023;48.274;7.794;2023-03-14T18:06:20;3.65;;;1.70;;
21721;SDS011;11023;48.274;7.794;2023-03-14T18:08:47;4.03;;;1.90;;
21721;SDS011;11023;48.274;7.794;2023-03-14T18:11:14;4.10;;;2.17;;
21721;SDS011;11023;48.274;7.794;2023-03-14T18:13:41;4.53;;;2.58;;
21721;SDS011;11023;48.274;7.794;2023-03-14T18:16:07;6.32;;;2.78;;
21721;SDS011;11023;48.274;7.794;2023-03-14T18:18:38;5.97;;;2.50;;
21721;SDS011;11023;48.274;7.794;2023-03-14T18:21:04;5.20;;;2.50;;
21721;SDS011;11023;48.274;7.794;2023-03-14T18:23:31;4.63;;;1.85;;
21721;SDS011;11023;48.274;7.794;2023-03-14T18:25:58;4.18;;;1.60;;
21721;SDS011;11023;48.274;7.794;2023-03-14T18:28:25;3.35;;;1.65;;
21721;SDS011;11023;48.274;7.794;2023-03-14T18:30:51;3.95;;;1.60;;